AFL9734 UNNT-UNKL
Flight info
| Callsign | AFL9734 |
|---|---|
| Flight time | 0h 53m |
| Altitude | 27000 |
| Route | OGATI1K OGATI A308 RISPA A366 KESED A309 ROTLI A300 RANET RANET2Z |
| Aircraft | A321/M-SDE3FGHIRWY/LB1 |
Departure
| Time | 2026-04-27 11:27 |
|---|---|
| Airport | Novosibirsk Tolmachevo Airport (UNNT) |
Arrival
| Time | 2026-04-27 12:20 |
|---|---|
| Airport | Krasnoyarsk International Airport (UNKL) |
| Time | Latitude | Longitude | Altitude | Speed | Heading |
|---|---|---|---|---|---|
| 2026-04-27 10:54 | 55.01165 | 82.67372 | 372 ft | 0 kts | 171° |
| 2026-04-27 11:24 | 55.01163 | 82.67373 | 372 ft | 2 kts | 171° |
| 2026-04-27 11:24 | 55.01142 | 82.67378 | 372 ft | 3 kts | 171° |
| 2026-04-27 11:24 | 55.01117 | 82.67407 | 372 ft | 9 kts | 124° |
| 2026-04-27 11:25 | 55.01149 | 82.67490 | 372 ft | 9 kts | 33° |
| 2026-04-27 11:25 | 55.01214 | 82.67561 | 372 ft | 12 kts | 32° |
| 2026-04-27 11:25 | 55.01280 | 82.67634 | 372 ft | 11 kts | 32° |
| 2026-04-27 11:25 | 55.01342 | 82.67700 | 372 ft | 10 kts | 31° |
| 2026-04-27 11:26 | 55.01429 | 82.67772 | 371 ft | 19 kts | 9° |
| 2026-04-27 11:26 | 55.01483 | 82.67692 | 371 ft | 8 kts | 265° |
| 2026-04-27 11:26 | 55.01471 | 82.67546 | 375 ft | 31 kts | 261° |
| 2026-04-27 11:26 | 55.01396 | 82.66670 | 374 ft | 110 kts | 261° |
| 2026-04-27 11:27 | 55.01238 | 82.64992 | 375 ft | 168 kts | 262° |
| 2026-04-27 11:27 | 55.01047 | 82.62880 | 966 ft | 177 kts | 263° |
| 2026-04-27 11:27 | 55.00852 | 82.60796 | 1867 ft | 176 kts | 262° |
| 2026-04-27 11:27 | 55.00656 | 82.58640 | 2565 ft | 189 kts | 263° |
| 2026-04-27 11:28 | 55.00445 | 82.56263 | 3146 ft | 206 kts | 262° |
| 2026-04-27 11:28 | 55.00260 | 82.53624 | 3203 ft | 235 kts | 271° |
| 2026-04-27 11:28 | 55.00817 | 82.50956 | 3185 ft | 243 kts | 310° |
| 2026-04-27 11:28 | 55.02267 | 82.49379 | 3191 ft | 257 kts | 346° |
| 2026-04-27 11:29 | 55.04093 | 82.49331 | 3198 ft | 268 kts | 2° |
| 2026-04-27 11:29 | 55.05943 | 82.49864 | 3427 ft | 270 kts | 17° |
| 2026-04-27 11:29 | 55.07569 | 82.51453 | 3804 ft | 270 kts | 39° |
| 2026-04-27 11:29 | 55.08693 | 82.54089 | 4038 ft | 274 kts | 65° |
| 2026-04-27 11:30 | 55.09064 | 82.57351 | 4261 ft | 277 kts | 92° |
| 2026-04-27 11:30 | 55.08783 | 82.60680 | 4443 ft | 279 kts | 101° |
| 2026-04-27 11:30 | 55.08431 | 82.64013 | 4691 ft | 280 kts | 100° |
| 2026-04-27 11:30 | 55.08077 | 82.67366 | 4925 ft | 280 kts | 101° |
| 2026-04-27 11:31 | 55.07724 | 82.70719 | 5143 ft | 281 kts | 100° |
| 2026-04-27 11:31 | 55.07371 | 82.74080 | 5367 ft | 283 kts | 100° |
| 2026-04-27 11:31 | 55.07019 | 82.77443 | 5591 ft | 283 kts | 100° |
| 2026-04-27 11:31 | 55.06664 | 82.80847 | 5825 ft | 284 kts | 100° |
| 2026-04-27 11:32 | 55.06311 | 82.84238 | 6052 ft | 285 kts | 100° |
| 2026-04-27 11:32 | 55.05956 | 82.87649 | 6254 ft | 286 kts | 100° |
| 2026-04-27 11:32 | 55.05598 | 82.91061 | 6459 ft | 287 kts | 100° |
| 2026-04-27 11:32 | 55.05237 | 82.94491 | 6820 ft | 289 kts | 101° |
| 2026-04-27 11:33 | 55.04872 | 82.97945 | 7785 ft | 291 kts | 101° |
| 2026-04-27 11:33 | 55.04503 | 83.01434 | 8700 ft | 295 kts | 101° |
| 2026-04-27 11:33 | 55.04124 | 83.04990 | 9596 ft | 300 kts | 101° |
| 2026-04-27 11:33 | 55.03741 | 83.08587 | 10379 ft | 308 kts | 101° |
| 2026-04-27 11:34 | 55.03334 | 83.12398 | 10682 ft | 331 kts | 101° |
| 2026-04-27 11:34 | 55.02892 | 83.16495 | 10988 ft | 355 kts | 101° |
| 2026-04-27 11:34 | 55.02420 | 83.20870 | 11223 ft | 379 kts | 101° |
| 2026-04-27 11:34 | 55.01920 | 83.25509 | 11452 ft | 401 kts | 101° |
| 2026-04-27 11:35 | 55.01396 | 83.30348 | 11998 ft | 410 kts | 102° |
| 2026-04-27 11:35 | 55.00863 | 83.35270 | 12651 ft | 417 kts | 102° |
| 2026-04-27 11:35 | 55.00317 | 83.40289 | 13318 ft | 424 kts | 102° |
| 2026-04-27 11:35 | 54.99758 | 83.45367 | 13952 ft | 430 kts | 103° |
| 2026-04-27 11:36 | 54.99191 | 83.50513 | 14495 ft | 436 kts | 103° |
| 2026-04-27 11:36 | 54.98616 | 83.55722 | 15059 ft | 440 kts | 103° |
| 2026-04-27 11:36 | 54.98032 | 83.60976 | 15604 ft | 444 kts | 103° |
| 2026-04-27 11:36 | 54.97444 | 83.66259 | 16127 ft | 447 kts | 103° |
| 2026-04-27 11:37 | 54.96848 | 83.71594 | 16649 ft | 451 kts | 104° |
| 2026-04-27 11:37 | 54.96240 | 83.76980 | 17160 ft | 455 kts | 104° |
| 2026-04-27 11:37 | 54.95625 | 83.82396 | 17667 ft | 458 kts | 104° |
| 2026-04-27 11:37 | 54.95002 | 83.87845 | 18155 ft | 461 kts | 104° |
| 2026-04-27 11:38 | 54.94372 | 83.93348 | 18617 ft | 465 kts | 105° |
| 2026-04-27 11:38 | 54.93740 | 83.98873 | 19041 ft | 468 kts | 105° |
| 2026-04-27 11:38 | 54.93104 | 84.04424 | 19469 ft | 470 kts | 105° |
| 2026-04-27 11:38 | 54.92472 | 84.09926 | 19875 ft | 473 kts | 105° |
| 2026-04-27 11:39 | 54.91822 | 84.15555 | 20283 ft | 475 kts | 106° |
| 2026-04-27 11:39 | 54.91162 | 84.21214 | 20676 ft | 478 kts | 106° |
| 2026-04-27 11:39 | 54.90497 | 84.26880 | 21076 ft | 480 kts | 106° |
| 2026-04-27 11:39 | 54.89828 | 84.32580 | 21452 ft | 483 kts | 106° |
| 2026-04-27 11:40 | 54.89156 | 84.38313 | 21828 ft | 485 kts | 106° |
| 2026-04-27 11:40 | 54.88481 | 84.44064 | 22189 ft | 488 kts | 107° |
| 2026-04-27 11:40 | 54.87798 | 84.49844 | 22530 ft | 490 kts | 107° |
| 2026-04-27 11:40 | 54.87103 | 84.55658 | 22891 ft | 492 kts | 107° |
| 2026-04-27 11:41 | 54.86401 | 84.61474 | 23231 ft | 494 kts | 107° |
| 2026-04-27 11:41 | 54.85750 | 84.67366 | 23543 ft | 499 kts | 103° |
| 2026-04-27 11:41 | 54.85407 | 84.73382 | 23825 ft | 504 kts | 100° |
| 2026-04-27 11:41 | 54.85095 | 84.79463 | 24067 ft | 505 kts | 100° |
| 2026-04-27 11:42 | 54.84783 | 84.85550 | 24293 ft | 507 kts | 100° |
| 2026-04-27 11:42 | 54.84464 | 84.91654 | 24509 ft | 509 kts | 100° |
| 2026-04-27 11:42 | 54.84136 | 84.97779 | 24717 ft | 510 kts | 101° |
| 2026-04-27 11:42 | 54.83803 | 85.03914 | 24913 ft | 512 kts | 101° |
| 2026-04-27 11:43 | 54.83467 | 85.10068 | 25097 ft | 513 kts | 101° |
| 2026-04-27 11:43 | 54.83284 | 85.16282 | 25263 ft | 520 kts | 93° |
| 2026-04-27 11:43 | 54.83662 | 85.22555 | 25458 ft | 526 kts | 82° |
| 2026-04-27 11:43 | 54.84635 | 85.28688 | 25696 ft | 530 kts | 72° |
| 2026-04-27 11:44 | 54.86183 | 85.34503 | 25899 ft | 533 kts | 61° |
| 2026-04-27 11:44 | 54.88278 | 85.39812 | 26121 ft | 533 kts | 50° |
| 2026-04-27 11:44 | 54.90751 | 85.44448 | 26276 ft | 530 kts | 45° |
| 2026-04-27 11:44 | 54.93329 | 85.49059 | 26420 ft | 532 kts | 45° |
| 2026-04-27 11:45 | 54.95904 | 85.53688 | 26611 ft | 533 kts | 45° |
| 2026-04-27 11:45 | 54.97640 | 85.56826 | 26756 ft | 533 kts | 45° |
| 2026-04-27 11:45 | 55.01040 | 85.62998 | 27043 ft | 533 kts | 45° |
| 2026-04-27 11:45 | 55.03605 | 85.67682 | 27153 ft | 536 kts | 45° |
| 2026-04-27 11:46 | 55.06185 | 85.72400 | 27166 ft | 541 kts | 45° |
| 2026-04-27 11:46 | 55.08798 | 85.77179 | 27168 ft | 545 kts | 45° |
| 2026-04-27 11:46 | 55.11419 | 85.81977 | 27166 ft | 548 kts | 45° |
| 2026-04-27 11:46 | 55.14063 | 85.86820 | 27165 ft | 551 kts | 45° |
| 2026-04-27 11:47 | 55.16718 | 85.91691 | 27167 ft | 554 kts | 46° |
| 2026-04-27 11:47 | 55.19384 | 85.96587 | 27165 ft | 557 kts | 46° |
| 2026-04-27 11:47 | 55.22058 | 86.01509 | 27169 ft | 559 kts | 46° |
| 2026-04-27 11:47 | 55.24707 | 86.06518 | 27164 ft | 562 kts | 50° |
| 2026-04-27 11:48 | 55.27013 | 86.12043 | 27162 ft | 558 kts | 59° |
| 2026-04-27 11:48 | 55.28824 | 86.17922 | 27166 ft | 545 kts | 68° |
| 2026-04-27 11:48 | 55.30324 | 86.24033 | 27164 ft | 545 kts | 69° |
| 2026-04-27 11:48 | 55.31812 | 86.30129 | 27165 ft | 541 kts | 69° |
| 2026-04-27 11:49 | 55.33303 | 86.36220 | 27166 ft | 545 kts | 69° |
| 2026-04-27 11:49 | 55.34804 | 86.42354 | 27165 ft | 548 kts | 69° |
| 2026-04-27 11:49 | 55.36293 | 86.48450 | 27165 ft | 551 kts | 69° |
| 2026-04-27 11:49 | 55.37796 | 86.54603 | 27158 ft | 544 kts | 69° |
| 2026-04-27 11:50 | 55.39291 | 86.60734 | 27158 ft | 534 kts | 69° |
| 2026-04-27 11:50 | 55.40734 | 86.66685 | 27159 ft | 522 kts | 69° |
| 2026-04-27 11:50 | 55.42132 | 86.72510 | 27161 ft | 527 kts | 70° |
| 2026-04-27 11:50 | 55.43555 | 86.78487 | 27161 ft | 533 kts | 70° |
| 2026-04-27 11:51 | 55.44990 | 86.84530 | 27161 ft | 538 kts | 70° |
| 2026-04-27 11:51 | 55.46439 | 86.90631 | 27160 ft | 542 kts | 70° |
| 2026-04-27 11:51 | 55.49376 | 87.02952 | 27157 ft | 548 kts | 70° |
| 2026-04-27 11:52 | 55.50853 | 87.09163 | 27157 ft | 551 kts | 70° |
| 2026-04-27 11:52 | 55.52333 | 87.15420 | 27155 ft | 553 kts | 70° |
| 2026-04-27 11:52 | 55.53812 | 87.21708 | 27156 ft | 556 kts | 70° |
| 2026-04-27 11:52 | 55.55290 | 87.28026 | 27153 ft | 552 kts | 70° |
| 2026-04-27 11:53 | 55.56735 | 87.34209 | 27153 ft | 538 kts | 70° |
| 2026-04-27 11:53 | 55.58145 | 87.40246 | 27150 ft | 527 kts | 70° |
| 2026-04-27 11:53 | 55.59531 | 87.46200 | 27147 ft | 518 kts | 70° |
| 2026-04-27 11:53 | 55.60889 | 87.52054 | 27153 ft | 514 kts | 70° |
| 2026-04-27 11:54 | 55.62243 | 87.57909 | 27163 ft | 515 kts | 70° |
| 2026-04-27 11:54 | 55.63594 | 87.63778 | 27151 ft | 515 kts | 71° |
| 2026-04-27 11:54 | 55.64943 | 87.69655 | 27152 ft | 516 kts | 71° |
| 2026-04-27 11:54 | 55.66294 | 87.75559 | 27152 ft | 520 kts | 71° |
| 2026-04-27 11:55 | 55.67655 | 87.81516 | 27153 ft | 524 kts | 71° |
| 2026-04-27 11:55 | 55.69029 | 87.87534 | 27155 ft | 527 kts | 71° |
| 2026-04-27 11:55 | 55.70404 | 87.93559 | 27153 ft | 529 kts | 71° |
| 2026-04-27 11:55 | 55.71784 | 87.99619 | 27142 ft | 531 kts | 71° |
| 2026-04-27 11:56 | 55.73161 | 88.05692 | 27146 ft | 533 kts | 71° |
| 2026-04-27 11:56 | 55.74543 | 88.11810 | 27143 ft | 533 kts | 71° |
| 2026-04-27 11:56 | 55.75914 | 88.17891 | 27140 ft | 527 kts | 71° |
| 2026-04-27 11:56 | 55.77246 | 88.23824 | 27137 ft | 522 kts | 71° |
| 2026-04-27 11:57 | 55.78580 | 88.29790 | 27133 ft | 518 kts | 71° |
| 2026-04-27 11:57 | 55.79920 | 88.35805 | 27140 ft | 517 kts | 71° |
| 2026-04-27 11:57 | 55.81233 | 88.41707 | 27143 ft | 521 kts | 71° |
| 2026-04-27 11:57 | 55.82558 | 88.47690 | 27133 ft | 519 kts | 71° |
| 2026-04-27 11:58 | 55.83878 | 88.53671 | 27132 ft | 521 kts | 71° |
| 2026-04-27 11:58 | 55.85201 | 88.59689 | 27131 ft | 523 kts | 71° |
| 2026-04-27 11:58 | 55.86525 | 88.65709 | 27129 ft | 523 kts | 71° |
| 2026-04-27 11:58 | 55.87848 | 88.71752 | 27129 ft | 523 kts | 71° |
| 2026-04-27 11:59 | 55.89164 | 88.77777 | 27130 ft | 524 kts | 71° |
| 2026-04-27 11:59 | 55.90487 | 88.83838 | 27123 ft | 524 kts | 71° |
| 2026-04-27 11:59 | 55.91806 | 88.89876 | 27124 ft | 524 kts | 71° |
| 2026-04-27 11:59 | 55.93129 | 88.95948 | 27130 ft | 524 kts | 71° |
| 2026-04-27 12:00 | 55.94441 | 89.02018 | 27128 ft | 524 kts | 72° |
| 2026-04-27 12:00 | 55.95745 | 89.08087 | 27131 ft | 524 kts | 72° |
| 2026-04-27 12:00 | 55.97041 | 89.14161 | 27129 ft | 524 kts | 72° |
| 2026-04-27 12:00 | 55.98332 | 89.20250 | 27128 ft | 524 kts | 72° |
| 2026-04-27 12:01 | 55.99620 | 89.26347 | 27124 ft | 524 kts | 72° |
| 2026-04-27 12:01 | 56.00902 | 89.32439 | 27124 ft | 524 kts | 72° |
| 2026-04-27 12:01 | 56.02186 | 89.38533 | 27119 ft | 524 kts | 72° |
| 2026-04-27 12:01 | 56.03466 | 89.44623 | 27119 ft | 524 kts | 72° |
| 2026-04-27 12:02 | 56.04751 | 89.50746 | 27122 ft | 524 kts | 72° |
| 2026-04-27 12:02 | 56.06042 | 89.56915 | 27118 ft | 524 kts | 72° |
| 2026-04-27 12:02 | 56.07304 | 89.62952 | 27120 ft | 524 kts | 72° |
| 2026-04-27 12:02 | 56.08580 | 89.69058 | 27125 ft | 524 kts | 72° |
| 2026-04-27 12:03 | 56.09872 | 89.75264 | 27121 ft | 524 kts | 72° |
| 2026-04-27 12:03 | 56.11119 | 89.81304 | 27118 ft | 523 kts | 72° |
| 2026-04-27 12:03 | 56.12394 | 89.87498 | 27121 ft | 523 kts | 73° |
| 2026-04-27 12:03 | 56.13649 | 89.93608 | 27119 ft | 522 kts | 73° |
| 2026-04-27 12:04 | 56.14896 | 89.99727 | 27118 ft | 522 kts | 73° |
| 2026-04-27 12:04 | 56.16137 | 90.05838 | 27119 ft | 522 kts | 73° |
| 2026-04-27 12:04 | 56.17365 | 90.11883 | 27116 ft | 521 kts | 73° |
| 2026-04-27 12:04 | 56.18199 | 90.15998 | 27113 ft | 521 kts | 73° |
| 2026-04-27 12:05 | 56.19852 | 90.24175 | 27111 ft | 521 kts | 73° |
| 2026-04-27 12:05 | 56.20670 | 90.28226 | 27107 ft | 521 kts | 73° |
| 2026-04-27 12:05 | 56.21899 | 90.34338 | 27109 ft | 520 kts | 73° |
| 2026-04-27 12:05 | 56.23539 | 90.42513 | 26541 ft | 532 kts | 73° |
| 2026-04-27 12:06 | 56.24797 | 90.48840 | 26100 ft | 540 kts | 73° |
| 2026-04-27 12:06 | 56.25647 | 90.53131 | 25921 ft | 540 kts | 73° |
| 2026-04-27 12:06 | 56.26750 | 90.59559 | 25046 ft | 535 kts | 81° |
| 2026-04-27 12:06 | 56.27348 | 90.66137 | 23862 ft | 531 kts | 90° |
| 2026-04-27 12:07 | 56.27505 | 90.72736 | 22789 ft | 526 kts | 93° |
| 2026-04-27 12:07 | 56.27636 | 90.79241 | 22060 ft | 516 kts | 93° |
| 2026-04-27 12:07 | 56.27781 | 90.85633 | 21293 ft | 509 kts | 92° |
| 2026-04-27 12:07 | 56.27933 | 90.91980 | 20499 ft | 504 kts | 92° |
| 2026-04-27 12:08 | 56.28081 | 90.98236 | 19758 ft | 498 kts | 92° |
| 2026-04-27 12:08 | 56.28220 | 91.04433 | 19019 ft | 493 kts | 92° |
| 2026-04-27 12:08 | 56.28342 | 91.10575 | 18275 ft | 487 kts | 94° |
| 2026-04-27 12:08 | 56.28143 | 91.16569 | 17444 ft | 476 kts | 103° |
| 2026-04-27 12:09 | 56.27663 | 91.22431 | 16629 ft | 472 kts | 103° |
| 2026-04-27 12:09 | 56.27185 | 91.28257 | 15812 ft | 468 kts | 103° |
| 2026-04-27 12:09 | 56.26714 | 91.34016 | 15017 ft | 464 kts | 103° |
| 2026-04-27 12:09 | 56.26243 | 91.39742 | 14247 ft | 461 kts | 103° |
| 2026-04-27 12:10 | 56.25775 | 91.45419 | 13413 ft | 457 kts | 102° |
| 2026-04-27 12:10 | 56.25312 | 91.51016 | 12752 ft | 448 kts | 102° |
| 2026-04-27 12:10 | 56.24858 | 91.56479 | 12275 ft | 434 kts | 102° |
| 2026-04-27 12:10 | 56.24412 | 91.61788 | 11725 ft | 425 kts | 102° |
| 2026-04-27 12:11 | 56.23953 | 91.66951 | 11419 ft | 410 kts | 106° |
| 2026-04-27 12:11 | 56.23171 | 91.71739 | 11281 ft | 387 kts | 116° |
| 2026-04-27 12:11 | 56.22188 | 91.76113 | 11154 ft | 370 kts | 117° |
| 2026-04-27 12:11 | 56.21253 | 91.80291 | 11026 ft | 355 kts | 117° |
| 2026-04-27 12:12 | 56.20350 | 91.84338 | 10901 ft | 340 kts | 117° |
| 2026-04-27 12:12 | 56.19483 | 91.88218 | 10769 ft | 330 kts | 117° |
| 2026-04-27 12:12 | 56.18639 | 91.91976 | 10643 ft | 323 kts | 118° |
| 2026-04-27 12:12 | 56.17803 | 91.95683 | 10392 ft | 317 kts | 118° |
| 2026-04-27 12:13 | 56.16994 | 91.99279 | 10324 ft | 306 kts | 118° |
| 2026-04-27 12:13 | 56.16209 | 92.02762 | 10198 ft | 300 kts | 118° |
| 2026-04-27 12:13 | 56.15424 | 92.06221 | 10064 ft | 298 kts | 118° |
| 2026-04-27 12:13 | 56.14637 | 92.09678 | 9642 ft | 302 kts | 117° |
| 2026-04-27 12:14 | 56.13840 | 92.13174 | 9236 ft | 304 kts | 117° |
| 2026-04-27 12:14 | 56.13040 | 92.16688 | 8848 ft | 304 kts | 116° |
| 2026-04-27 12:14 | 56.12246 | 92.20179 | 8470 ft | 301 kts | 116° |
| 2026-04-27 12:14 | 56.11456 | 92.23642 | 8078 ft | 299 kts | 115° |
| 2026-04-27 12:15 | 56.10677 | 92.27055 | 7699 ft | 296 kts | 115° |
| 2026-04-27 12:15 | 56.09894 | 92.30472 | 7323 ft | 294 kts | 115° |
| 2026-04-27 12:15 | 56.09120 | 92.33841 | 6945 ft | 291 kts | 114° |
| 2026-04-27 12:15 | 56.08351 | 92.37193 | 6513 ft | 292 kts | 113° |
| 2026-04-27 12:16 | 56.07581 | 92.40543 | 6112 ft | 289 kts | 113° |
| 2026-04-27 12:16 | 56.06822 | 92.43847 | 5743 ft | 286 kts | 113° |
| 2026-04-27 12:16 | 56.06172 | 92.47170 | 5380 ft | 282 kts | 100° |
| 2026-04-27 12:16 | 56.06099 | 92.50646 | 5018 ft | 278 kts | 80° |
| 2026-04-27 12:17 | 56.06640 | 92.53960 | 4374 ft | 282 kts | 60° |
| 2026-04-27 12:17 | 56.07756 | 92.56821 | 3704 ft | 281 kts | 47° |
| 2026-04-27 12:17 | 56.09005 | 92.59503 | 2987 ft | 278 kts | 48° |
| 2026-04-27 12:17 | 56.10232 | 92.62002 | 2711 ft | 252 kts | 36° |
| 2026-04-27 12:18 | 56.11667 | 92.63205 | 2594 ft | 212 kts | 4° |
| 2026-04-27 12:18 | 56.12989 | 92.62967 | 2516 ft | 174 kts | 335° |
| 2026-04-27 12:18 | 56.13926 | 92.61943 | 2502 ft | 145 kts | 314° |
| 2026-04-27 12:18 | 56.14635 | 92.60669 | 2143 ft | 148 kts | 302° |
| 2026-04-27 12:19 | 56.15060 | 92.59054 | 1812 ft | 143 kts | 286° |
| 2026-04-27 12:19 | 56.15395 | 92.57454 | 1616 ft | 132 kts | 291° |
| 2026-04-27 12:19 | 56.15756 | 92.55850 | 1454 ft | 147 kts | 291° |
| 2026-04-27 12:19 | 56.16167 | 92.54076 | 1258 ft | 161 kts | 291° |
| 2026-04-27 12:20 | 56.16619 | 92.52175 | 1020 ft | 167 kts | 292° |
| 2026-04-27 12:20 | 56.17046 | 92.50400 | 954 ft | 137 kts | 289° |
| 2026-04-27 12:20 | 56.17327 | 92.49184 | 953 ft | 78 kts | 292° |
| 2026-04-27 12:20 | 56.17426 | 92.48800 | 953 ft | 15 kts | 301° |
| 2026-04-27 12:21 | 56.17495 | 92.48695 | 954 ft | 12 kts | 326° |
| 2026-04-27 12:21 | 56.17573 | 92.48600 | 955 ft | 14 kts | 324° |
| 2026-04-27 12:21 | 56.17645 | 92.48505 | 953 ft | 12 kts | 324° |
| 2026-04-27 12:21 | 56.17712 | 92.48421 | 956 ft | 11 kts | 330° |
| 2026-04-27 12:22 | 56.17780 | 92.48418 | 955 ft | 9 kts | 21° |
| 2026-04-27 12:22 | 56.17840 | 92.48462 | 956 ft | 10 kts | 22° |
| 2026-04-27 12:22 | 56.17901 | 92.48508 | 955 ft | 9 kts | 23° |
| 2026-04-27 12:22 | 56.17945 | 92.48542 | 952 ft | 0 kts | 23° |